Airfield :
LOGIN :

Register | Disclaimer

   EN    FR    IT 

 










Legend :    VFR   Marginal VFR   IFR   Intensive IFR   Very Intensive IFR
Visi :
Ceiling :
>= 8 km
>= 3000ft
5 to 8 km
1000 to 3000 ft
1500m to 5 km
500 to 1000 ft
800 to 1500m
200 to 500 ft
< 800m
< 200 ft
Symbols :   Thunderstorms  Fog  Heavy snow  Heavy precipitations  Wind > 20 kt
SIGMETs :     Misc.  Thunderstorms  Icing  Turbulence  Mountain Waves  Volcanic Ashes






- Airport Elevation : 326 ft
- IATA code : LCG


LECO - A Coruna

CURRENT METAR :
  • 071530Z 34007KT 300V050 CAVOK 30/19 Q1014 NOSIG

EXPIRED METARs :
  • 071500Z 35006KT 300V040 CAVOK 31/19 Q1014 NOSIG
  • 071430Z 35007KT 300V050 CAVOK 30/19 Q1014 NOSIG
  • 071400Z 01007KT 320V070 CAVOK 30/19 Q1014 NOSIG
  • 071330Z 35006KT 300V050 CAVOK 30/18 Q1014 NOSIG
  • 071300Z 02006KT 330V070 CAVOK 30/18 Q1014 NOSIG

TAF TAF LECO
Valid from the 07 at 15:00 until the 08 at 15:00 UTC


071400Z 0715/0815 02009KT CAVOK TX32/0814Z TN17/0806Z



MET'MAP, your aeronautical weather chart ! - Copyright ORBIFLY December 2007 - Disclaimer

ORBIFLY MET'MAP TEAM :

Programming & Development : Alexandra Zaïnal
Original concept : Baudouin d'Aumeries
Technical & hardware support : Manuel Goepfert
Assistance : Marc-Olivier Méhu




SOURCES & CREDITS :

   NOAA